sensor_id;sensor_type;location;lat;lon;timestamp;pressure;altitude;pressure_sealevel;temperature;humidity
7802;BME280;3945;48.952;9.506;2023-05-19T00:00:21;98447.28;;;11.38;65.08
7802;BME280;3945;48.952;9.506;2023-05-19T00:02:49;98441.38;;;11.35;64.92
7802;BME280;3945;48.952;9.506;2023-05-19T00:05:15;98446.69;;;11.35;65.05
7802;BME280;3945;48.952;9.506;2023-05-19T00:07:43;98448.78;;;11.33;64.96
7802;BME280;3945;48.952;9.506;2023-05-19T00:10:10;98448.78;;;11.33;65.26
7802;BME280;3945;48.952;9.506;2023-05-19T00:12:37;98451.44;;;11.33;65.88
7802;BME280;3945;48.952;9.506;2023-05-19T00:15:05;98444.47;;;11.32;65.77
7802;BME280;3945;48.952;9.506;2023-05-19T00:17:32;98440.44;;;11.30;65.97
7802;BME280;3945;48.952;9.506;2023-05-19T00:19:59;98440.09;;;11.26;65.39
7802;BME280;3945;48.952;9.506;2023-05-19T00:22:25;98436.38;;;11.27;65.66
7802;BME280;3945;48.952;9.506;2023-05-19T00:24:52;98437.19;;;11.28;65.36
7802;BME280;3945;48.952;9.506;2023-05-19T00:27:18;98431.66;;;11.29;65.35
7802;BME280;3945;48.952;9.506;2023-05-19T00:29:44;98436.97;;;11.29;65.34
7802;BME280;3945;48.952;9.506;2023-05-19T00:32:12;98434.97;;;11.25;65.34
7802;BME280;3945;48.952;9.506;2023-05-19T00:34:39;98435.25;;;11.23;65.67
7802;BME280;3945;48.952;9.506;2023-05-19T00:37:06;98431.75;;;11.23;65.71
7802;BME280;3945;48.952;9.506;2023-05-19T00:39:32;98426.19;;;11.24;65.84
7802;BME280;3945;48.952;9.506;2023-05-19T00:41:59;98435.25;;;11.23;65.46
7802;BME280;3945;48.952;9.506;2023-05-19T00:44:26;98428.84;;;11.24;65.76
7802;BME280;3945;48.952;9.506;2023-05-19T00:46:53;98427.56;;;11.27;65.70
7802;BME280;3945;48.952;9.506;2023-05-19T00:49:20;98424.69;;;11.28;65.42
7802;BME280;3945;48.952;9.506;2023-05-19T00:51:47;98418.53;;;11.28;65.55
7802;BME280;3945;48.952;9.506;2023-05-19T00:54:14;98414.03;;;11.28;65.92
7802;BME280;3945;48.952;9.506;2023-05-19T00:56:40;98413.22;;;11.28;65.57
7802;BME280;3945;48.952;9.506;2023-05-19T00:59:07;98413.94;;;11.23;65.73
7802;BME280;3945;48.952;9.506;2023-05-19T01:01:33;98411.81;;;11.25;65.89
7802;BME280;3945;48.952;9.506;2023-05-19T01:04:00;98408.59;;;11.23;66.11
7802;BME280;3945;48.952;9.506;2023-05-19T01:06:29;98402.19;;;11.24;65.58
7802;BME280;3945;48.952;9.506;2023-05-19T01:08:56;98404.66;;;11.26;66.25
7802;BME280;3945;48.952;9.506;2023-05-19T01:11:22;98401.38;;;11.24;65.94
7802;BME280;3945;48.952;9.506;2023-05-19T01:13:49;98406.97;;;11.22;66.05
7802;BME280;3945;48.952;9.506;2023-05-19T01:16:17;98398.16;;;11.22;65.81
7802;BME280;3945;48.952;9.506;2023-05-19T01:18:49;98407.19;;;11.21;66.09
7802;BME280;3945;48.952;9.506;2023-05-19T01:24:15;98403.94;;;11.19;66.45
7802;BME280;3945;48.952;9.506;2023-05-19T01:26:53;98410.56;;;11.16;66.59
7802;BME280;3945;48.952;9.506;2023-05-19T01:29:40;98412.16;;;11.17;66.85
7802;BME280;3945;48.952;9.506;2023-05-19T01:32:08;98416.47;;;11.18;66.74
7802;BME280;3945;48.952;9.506;2023-05-19T01:34:37;98424.22;;;11.20;66.48
7802;BME280;3945;48.952;9.506;2023-05-19T01:37:05;98414.59;;;11.19;66.42
7802;BME280;3945;48.952;9.506;2023-05-19T01:39:32;98409.75;;;11.16;66.19
7802;BME280;3945;48.952;9.506;2023-05-19T01:42:00;98411.94;;;11.19;66.53
7802;BME280;3945;48.952;9.506;2023-05-19T01:44:26;98415.66;;;11.18;66.69
7802;BME280;3945;48.952;9.506;2023-05-19T01:46:53;98428.41;;;11.16;66.98
7802;BME280;3945;48.952;9.506;2023-05-19T01:49:21;98426.78;;;11.15;66.71
7802;BME280;3945;48.952;9.506;2023-05-19T01:51:48;98419.00;;;11.13;66.96
7802;BME280;3945;48.952;9.506;2023-05-19T01:54:14;98417.97;;;11.14;67.28
7802;BME280;3945;48.952;9.506;2023-05-19T01:56:42;98416.56;;;11.12;67.34
7802;BME280;3945;48.952;9.506;2023-05-19T02:01:55;98419.94;;;11.07;67.53
7802;BME280;3945;48.952;9.506;2023-05-19T02:04:28;98431.28;;;11.03;67.91
7802;BME280;3945;48.952;9.506;2023-05-19T02:06:59;98422.94;;;10.99;68.05
7802;BME280;3945;48.952;9.506;2023-05-19T02:09:30;98425.63;;;10.99;67.68
7802;BME280;3945;48.952;9.506;2023-05-19T02:12:01;98411.94;;;10.95;68.00
7802;BME280;3945;48.952;9.506;2023-05-19T02:14:29;98420.19;;;10.94;68.21
7802;BME280;3945;48.952;9.506;2023-05-19T02:16:56;98421.66;;;10.90;68.44
7802;BME280;3945;48.952;9.506;2023-05-19T02:19:23;98417.03;;;10.85;68.25
7802;BME280;3945;48.952;9.506;2023-05-19T02:21:51;98429.75;;;10.83;68.58
7802;BME280;3945;48.952;9.506;2023-05-19T02:24:17;98425.47;;;10.82;68.82
7802;BME280;3945;48.952;9.506;2023-05-19T02:26:46;98428.03;;;10.77;68.69
7802;BME280;3945;48.952;9.506;2023-05-19T02:29:13;98420.84;;;10.78;68.83
7802;BME280;3945;48.952;9.506;2023-05-19T02:31:39;98425.00;;;10.74;69.10
7802;BME280;3945;48.952;9.506;2023-05-19T02:34:06;98419.09;;;10.72;69.09
7802;BME280;3945;48.952;9.506;2023-05-19T02:36:33;98418.53;;;10.70;69.60
7802;BME280;3945;48.952;9.506;2023-05-19T02:39:02;98423.72;;;10.65;69.39
7802;BME280;3945;48.952;9.506;2023-05-19T02:41:28;98415.97;;;10.63;69.50
7802;BME280;3945;48.952;9.506;2023-05-19T02:43:55;98419.88;;;10.61;70.03
7802;BME280;3945;48.952;9.506;2023-05-19T02:46:22;98417.91;;;10.56;70.35
7802;BME280;3945;48.952;9.506;2023-05-19T02:48:48;98414.88;;;10.52;70.44
7802;BME280;3945;48.952;9.506;2023-05-19T02:51:14;98417.22;;;10.49;70.65
7802;BME280;3945;48.952;9.506;2023-05-19T02:53:41;98425.06;;;10.44;70.25
7802;BME280;3945;48.952;9.506;2023-05-19T02:56:08;98413.84;;;10.42;70.57
7802;BME280;3945;48.952;9.506;2023-05-19T02:58:35;98411.41;;;10.40;70.66
7802;BME280;3945;48.952;9.506;2023-05-19T03:01:01;98401.22;;;10.37;71.34
7802;BME280;3945;48.952;9.506;2023-05-19T03:03:28;98402.69;;;10.33;71.22
7802;BME280;3945;48.952;9.506;2023-05-19T03:05:55;98399.22;;;10.33;70.65
7802;BME280;3945;48.952;9.506;2023-05-19T03:08:21;98399.22;;;10.33;70.65
7802;BME280;3945;48.952;9.506;2023-05-19T03:10:47;98400.25;;;10.32;70.65
7802;BME280;3945;48.952;9.506;2023-05-19T03:13:15;98395.41;;;10.29;70.59
7802;BME280;3945;48.952;9.506;2023-05-19T03:15:42;98400.13;;;10.27;70.85
7802;BME280;3945;48.952;9.506;2023-05-19T03:18:09;98390.53;;;10.26;71.27
7802;BME280;3945;48.952;9.506;2023-05-19T03:20:35;98388.91;;;10.25;71.72
7802;BME280;3945;48.952;9.506;2023-05-19T03:23:02;98398.50;;;10.26;71.30
7802;BME280;3945;48.952;9.506;2023-05-19T03:25:28;98392.84;;;10.22;71.43
7802;BME280;3945;48.952;9.506;2023-05-19T03:27:55;98400.03;;;10.22;71.50
7802;BME280;3945;48.952;9.506;2023-05-19T03:30:23;98411.22;;;10.24;71.65
7802;BME280;3945;48.952;9.506;2023-05-19T03:32:49;98407.41;;;10.20;71.52
7802;BME280;3945;48.952;9.506;2023-05-19T03:35:16;98405.78;;;10.18;71.78
7802;BME280;3945;48.952;9.506;2023-05-19T03:37:43;98408.66;;;10.17;71.51
7802;BME280;3945;48.952;9.506;2023-05-19T03:40:09;98409.66;;;10.16;71.61
7802;BME280;3945;48.952;9.506;2023-05-19T03:42:36;98406.22;;;10.15;71.91
7802;BME280;3945;48.952;9.506;2023-05-19T03:45:02;98407.81;;;10.16;71.44
7802;BME280;3945;48.952;9.506;2023-05-19T03:47:30;98412.31;;;10.16;71.93
7802;BME280;3945;48.952;9.506;2023-05-19T03:49:56;98402.97;;;10.13;71.68
7802;BME280;3945;48.952;9.506;2023-05-19T03:52:23;98405.63;;;10.13;72.07
7802;BME280;3945;48.952;9.506;2023-05-19T03:54:49;98403.63;;;10.09;71.60
7802;BME280;3945;48.952;9.506;2023-05-19T03:57:16;98407.09;;;10.09;72.37
7802;BME280;3945;48.952;9.506;2023-05-19T03:59:43;98410.56;;;10.10;71.94
7802;BME280;3945;48.952;9.506;2023-05-19T04:02:10;98406.28;;;10.09;71.97
7802;BME280;3945;48.952;9.506;2023-05-19T04:04:37;98413.47;;;10.08;71.81
7802;BME280;3945;48.952;9.506;2023-05-19T04:07:04;98418.53;;;10.10;71.95
7802;BME280;3945;48.952;9.506;2023-05-19T04:09:31;98409.75;;;10.09;72.15
7802;BME280;3945;48.952;9.506;2023-05-19T04:11:59;98417.72;;;10.09;71.87
7802;BME280;3945;48.952;9.506;2023-05-19T04:14:25;98418.19;;;10.06;72.18
7802;BME280;3945;48.952;9.506;2023-05-19T04:16:52;98426.53;;;10.10;72.20
7802;BME280;3945;48.952;9.506;2023-05-19T04:19:18;98421.19;;;10.10;72.10
7802;BME280;3945;48.952;9.506;2023-05-19T04:21:46;98422.22;;;10.09;71.92
7802;BME280;3945;48.952;9.506;2023-05-19T04:24:12;98425.50;;;10.11;71.63
7802;BME280;3945;48.952;9.506;2023-05-19T04:26:39;98423.41;;;10.13;71.81
7802;BME280;3945;48.952;9.506;2023-05-19T04:29:09;98427.94;;;10.12;72.18
7802;BME280;3945;48.952;9.506;2023-05-19T04:31:38;98432.81;;;10.15;72.43
7802;BME280;3945;48.952;9.506;2023-05-19T04:34:04;98434.66;;;10.15;72.48
7802;BME280;3945;48.952;9.506;2023-05-19T04:36:31;98437.91;;;10.17;71.58
7802;BME280;3945;48.952;9.506;2023-05-19T04:38:59;98445.03;;;10.16;71.78
7802;BME280;3945;48.952;9.506;2023-05-19T04:41:30;98440.94;;;10.21;72.16
7802;BME280;3945;48.952;9.506;2023-05-19T04:43:57;98438.63;;;10.24;71.66
7802;BME280;3945;48.952;9.506;2023-05-19T04:46:24;98445.13;;;10.28;71.55
7802;BME280;3945;48.952;9.506;2023-05-19T04:48:51;98452.66;;;10.31;71.31
7802;BME280;3945;48.952;9.506;2023-05-19T04:51:19;98449.78;;;10.33;71.66
7802;BME280;3945;48.952;9.506;2023-05-19T04:53:45;98449.13;;;10.37;71.65
7802;BME280;3945;48.952;9.506;2023-05-19T04:56:13;98444.72;;;10.43;71.48
7802;BME280;3945;48.952;9.506;2023-05-19T04:58:40;98445.28;;;10.45;71.35
7802;BME280;3945;48.952;9.506;2023-05-19T05:01:08;98443.22;;;10.47;71.80
7802;BME280;3945;48.952;9.506;2023-05-19T05:03:37;98439.09;;;10.51;71.83
7802;BME280;3945;48.952;9.506;2023-05-19T05:06:04;98435.13;;;10.53;71.49
7802;BME280;3945;48.952;9.506;2023-05-19T05:08:30;98440.84;;;10.57;71.05
7802;BME280;3945;48.952;9.506;2023-05-19T05:10:57;98440.13;;;10.62;71.62
7802;BME280;3945;48.952;9.506;2023-05-19T05:13:25;98433.91;;;10.68;71.64
7802;BME280;3945;48.952;9.506;2023-05-19T05:15:52;98434.84;;;10.73;71.17
7802;BME280;3945;48.952;9.506;2023-05-19T05:18:18;98435.56;;;10.80;71.26
7802;BME280;3945;48.952;9.506;2023-05-19T05:20:45;98431.97;;;10.86;70.93
7802;BME280;3945;48.952;9.506;2023-05-19T05:23:12;98433.81;;;10.98;71.48
7802;BME280;3945;48.952;9.506;2023-05-19T05:25:39;98426.31;;;11.06;70.87
7802;BME280;3945;48.952;9.506;2023-05-19T05:28:05;98428.41;;;11.16;70.08
7802;BME280;3945;48.952;9.506;2023-05-19T05:30:33;98427.56;;;11.27;69.83
7802;BME280;3945;48.952;9.506;2023-05-19T05:33:00;98422.13;;;11.33;69.87
7802;BME280;3945;48.952;9.506;2023-05-19T05:35:27;98422.13;;;11.45;70.01
7802;BME280;3945;48.952;9.506;2023-05-19T05:37:53;98421.53;;;11.55;69.54
7802;BME280;3945;48.952;9.506;2023-05-19T05:40:20;98417.56;;;11.69;68.22
7802;BME280;3945;48.952;9.506;2023-05-19T05:42:46;98410.03;;;11.78;67.52
7802;BME280;3945;48.952;9.506;2023-05-19T05:45:12;98417.16;;;11.89;67.82
7802;BME280;3945;48.952;9.506;2023-05-19T05:47:40;98416.91;;;12.02;67.91
7802;BME280;3945;48.952;9.506;2023-05-19T05:50:08;98417.91;;;12.12;67.63
7802;BME280;3945;48.952;9.506;2023-05-19T05:52:35;98421.09;;;12.26;65.71
7802;BME280;3945;48.952;9.506;2023-05-19T05:55:01;98425.34;;;12.39;66.79
7802;BME280;3945;48.952;9.506;2023-05-19T05:57:28;98419.34;;;12.48;65.95
7802;BME280;3945;48.952;9.506;2023-05-19T05:59:54;98434.75;;;12.58;66.62
7802;BME280;3945;48.952;9.506;2023-05-19T06:02:21;98426.34;;;12.66;65.66
7802;BME280;3945;48.952;9.506;2023-05-19T06:04:48;98424.34;;;12.73;64.62
7802;BME280;3945;48.952;9.506;2023-05-19T06:07:15;98422.38;;;12.85;64.98
7802;BME280;3945;48.952;9.506;2023-05-19T06:09:41;98422.38;;;13.02;65.67
7802;BME280;3945;48.952;9.506;2023-05-19T06:12:08;98428.88;;;13.23;64.61
7802;BME280;3945;48.952;9.506;2023-05-19T06:14:35;98427.13;;;13.50;64.82
7802;BME280;3945;48.952;9.506;2023-05-19T06:17:01;98431.44;;;13.73;62.77
7802;BME280;3945;48.952;9.506;2023-05-19T06:19:28;98425.22;;;13.89;60.71
7802;BME280;3945;48.952;9.506;2023-05-19T06:21:55;98420.03;;;14.04;61.40
7802;BME280;3945;48.952;9.506;2023-05-19T06:24:22;98424.00;;;14.24;60.31
7802;BME280;3945;48.952;9.506;2023-05-19T06:26:48;98419.13;;;14.42;61.45
7802;BME280;3945;48.952;9.506;2023-05-19T06:29:14;98421.97;;;14.63;59.91
7802;BME280;3945;48.952;9.506;2023-05-19T06:31:41;98414.66;;;14.85;60.66
7802;BME280;3945;48.952;9.506;2023-05-19T06:34:07;98420.47;;;15.04;57.78
7802;BME280;3945;48.952;9.506;2023-05-19T06:36:36;98418.41;;;15.21;58.14
7802;BME280;3945;48.952;9.506;2023-05-19T06:39:04;98418.75;;;15.35;57.42
7802;BME280;3945;48.952;9.506;2023-05-19T06:41:30;98415.34;;;15.44;58.82
7802;BME280;3945;48.952;9.506;2023-05-19T06:43:56;98414.31;;;15.50;57.42
7802;BME280;3945;48.952;9.506;2023-05-19T06:46:23;98410.34;;;15.58;58.51
7802;BME280;3945;48.952;9.506;2023-05-19T06:48:49;98413.59;;;15.65;58.14
7802;BME280;3945;48.952;9.506;2023-05-19T06:51:16;98409.84;;;15.66;57.29
7802;BME280;3945;48.952;9.506;2023-05-19T06:53:45;98414.66;;;15.64;58.34
7802;BME280;3945;48.952;9.506;2023-05-19T06:56:13;98416.25;;;15.55;57.28
7802;BME280;3945;48.952;9.506;2023-05-19T06:58:40;98417.53;;;15.47;57.73
7802;BME280;3945;48.952;9.506;2023-05-19T07:01:06;98419.28;;;15.32;56.71
7802;BME280;3945;48.952;9.506;2023-05-19T07:03:32;98414.16;;;15.25;57.45
7802;BME280;3945;48.952;9.506;2023-05-19T07:05:59;98417.09;;;15.23;59.13
7802;BME280;3945;48.952;9.506;2023-05-19T07:08:25;98407.97;;;15.19;56.44
7802;BME280;3945;48.952;9.506;2023-05-19T07:10:52;98407.91;;;15.14;57.53
7802;BME280;3945;48.952;9.506;2023-05-19T07:13:21;98412.75;;;15.12;58.22
7802;BME280;3945;48.952;9.506;2023-05-19T07:15:47;98416.00;;;15.19;58.05
7802;BME280;3945;48.952;9.506;2023-05-19T07:18:16;98406.13;;;15.25;59.04
7802;BME280;3945;48.952;9.506;2023-05-19T07:20:43;98401.91;;;15.34;57.60
7802;BME280;3945;48.952;9.506;2023-05-19T07:23:10;98401.59;;;15.36;58.29
7802;BME280;3945;48.952;9.506;2023-05-19T07:25:36;98405.66;;;15.38;58.62
7802;BME280;3945;48.952;9.506;2023-05-19T07:28:03;98397.06;;;15.36;58.88
7802;BME280;3945;48.952;9.506;2023-05-19T07:30:30;98406.97;;;15.36;58.41
7802;BME280;3945;48.952;9.506;2023-05-19T07:32:57;98400.53;;;15.37;58.86
7802;BME280;3945;48.952;9.506;2023-05-19T07:35:23;98403.47;;;15.35;58.21
7802;BME280;3945;48.952;9.506;2023-05-19T07:37:50;98409.06;;;15.29;58.03
7802;BME280;3945;48.952;9.506;2023-05-19T07:40:16;98411.47;;;15.25;58.40
7802;BME280;3945;48.952;9.506;2023-05-19T07:42:43;98402.63;;;15.24;58.55
7802;BME280;3945;48.952;9.506;2023-05-19T07:45:09;98405.28;;;15.19;58.89
7802;BME280;3945;48.952;9.506;2023-05-19T07:47:37;98405.53;;;15.18;59.29
7802;BME280;3945;48.952;9.506;2023-05-19T07:50:04;98405.81;;;15.21;61.14
7802;BME280;3945;48.952;9.506;2023-05-19T07:52:30;98411.72;;;15.23;60.30
7802;BME280;3945;48.952;9.506;2023-05-19T07:54:57;98402.09;;;15.28;60.23
7802;BME280;3945;48.952;9.506;2023-05-19T07:57:23;98395.97;;;15.32;59.80
7802;BME280;3945;48.952;9.506;2023-05-19T07:59:50;98398.13;;;15.35;60.07
7802;BME280;3945;48.952;9.506;2023-05-19T08:02:16;98396.00;;;15.37;59.65
7802;BME280;3945;48.952;9.506;2023-05-19T08:04:44;98390.88;;;15.36;60.17
7802;BME280;3945;48.952;9.506;2023-05-19T08:07:10;98384.47;;;15.37;60.30
7802;BME280;3945;48.952;9.506;2023-05-19T08:09:36;98383.38;;;15.33;59.88
7802;BME280;3945;48.952;9.506;2023-05-19T08:12:03;98387.09;;;15.27;60.27
7802;BME280;3945;48.952;9.506;2023-05-19T08:14:29;98382.81;;;15.31;59.84
7802;BME280;3945;48.952;9.506;2023-05-19T08:16:57;98381.50;;;15.33;61.15
7802;BME280;3945;48.952;9.506;2023-05-19T08:19:23;98382.88;;;15.41;60.04
7802;BME280;3945;48.952;9.506;2023-05-19T08:21:52;98381.28;;;15.40;58.99
7802;BME280;3945;48.952;9.506;2023-05-19T08:24:18;98382.09;;;15.45;60.50
7802;BME280;3945;48.952;9.506;2023-05-19T08:26:44;98376.47;;;15.47;60.01
7802;BME280;3945;48.952;9.506;2023-05-19T08:29:11;98376.97;;;15.44;58.93
7802;BME280;3945;48.952;9.506;2023-05-19T08:31:37;98377.53;;;15.41;60.65
7802;BME280;3945;48.952;9.506;2023-05-19T08:34:04;98377.25;;;15.42;61.40
7802;BME280;3945;48.952;9.506;2023-05-19T08:36:30;98380.44;;;15.34;60.23
7802;BME280;3945;48.952;9.506;2023-05-19T08:38:59;98372.66;;;15.33;60.25
7802;BME280;3945;48.952;9.506;2023-05-19T08:41:25;98368.63;;;15.35;60.44
7802;BME280;3945;48.952;9.506;2023-05-19T08:43:51;98372.91;;;15.31;59.50
7802;BME280;3945;48.952;9.506;2023-05-19T08:46:18;98373.97;;;15.30;59.99
7802;BME280;3945;48.952;9.506;2023-05-19T08:48:46;98378.00;;;15.33;60.21
7802;BME280;3945;48.952;9.506;2023-05-19T08:51:17;98380.66;;;15.28;59.09
7802;BME280;3945;48.952;9.506;2023-05-19T08:53:46;98374.19;;;15.23;59.36
7802;BME280;3945;48.952;9.506;2023-05-19T08:56:15;98377.44;;;15.26;60.86
7802;BME280;3945;48.952;9.506;2023-05-19T08:58:43;98372.34;;;15.29;60.14
7802;BME280;3945;48.952;9.506;2023-05-19T09:01:10;98373.97;;;15.35;60.77
7802;BME280;3945;48.952;9.506;2023-05-19T09:03:38;98369.97;;;15.38;58.55
7802;BME280;3945;48.952;9.506;2023-05-19T09:06:06;98370.00;;;15.43;60.23
7802;BME280;3945;48.952;9.506;2023-05-19T09:08:33;98366.25;;;15.44;59.65
7802;BME280;3945;48.952;9.506;2023-05-19T09:11:00;98356.06;;;15.46;59.18
7802;BME280;3945;48.952;9.506;2023-05-19T09:13:27;98362.25;;;15.51;59.43
7802;BME280;3945;48.952;9.506;2023-05-19T09:15:54;98369.34;;;15.63;60.17
7802;BME280;3945;48.952;9.506;2023-05-19T09:18:22;98359.97;;;15.70;59.30
7802;BME280;3945;48.952;9.506;2023-05-19T09:20:49;98354.06;;;15.73;59.12
7802;BME280;3945;48.952;9.506;2023-05-19T09:23:16;98358.63;;;15.73;59.70
7802;BME280;3945;48.952;9.506;2023-05-19T09:25:46;98355.69;;;15.79;60.16
7802;BME280;3945;48.952;9.506;2023-05-19T09:28:13;98358.38;;;15.79;58.48
7802;BME280;3945;48.952;9.506;2023-05-19T09:30:41;98362.16;;;15.88;60.10
7802;BME280;3945;48.952;9.506;2023-05-19T09:33:07;98362.97;;;15.94;59.61
7802;BME280;3945;48.952;9.506;2023-05-19T09:35:34;98356.56;;;16.00;59.65
7802;BME280;3945;48.952;9.506;2023-05-19T09:38:00;98358.72;;;16.03;58.38
7802;BME280;3945;48.952;9.506;2023-05-19T09:40:27;98363.84;;;16.05;57.85
7802;BME280;3945;48.952;9.506;2023-05-19T09:42:53;98356.28;;;16.01;58.51
7802;BME280;3945;48.952;9.506;2023-05-19T09:45:20;98366.25;;;16.06;59.21
7802;BME280;3945;48.952;9.506;2023-05-19T09:47:48;98356.34;;;16.17;59.11
7802;BME280;3945;48.952;9.506;2023-05-19T09:50:15;98347.75;;;16.25;58.31
7802;BME280;3945;48.952;9.506;2023-05-19T09:52:42;98350.44;;;16.30;58.65
7802;BME280;3945;48.952;9.506;2023-05-19T09:55:09;98354.75;;;16.31;57.92
7802;BME280;3945;48.952;9.506;2023-05-19T09:57:37;98351.25;;;16.25;57.79
7802;BME280;3945;48.952;9.506;2023-05-19T10:00:04;98355.53;;;16.31;57.71
7802;BME280;3945;48.952;9.506;2023-05-19T10:02:39;98352.34;;;16.34;56.67
7802;BME280;3945;48.952;9.506;2023-05-19T10:05:08;98356.34;;;16.37;56.02
7802;BME280;3945;48.952;9.506;2023-05-19T10:07:35;98354.47;;;16.27;56.79
7802;BME280;3945;48.952;9.506;2023-05-19T10:10:02;98350.97;;;16.17;58.17
7802;BME280;3945;48.952;9.506;2023-05-19T10:12:29;98348.00;;;16.13;56.51
7802;BME280;3945;48.952;9.506;2023-05-19T10:14:57;98339.41;;;16.16;57.53
7802;BME280;3945;48.952;9.506;2023-05-19T10:17:24;98342.38;;;16.20;57.64
7802;BME280;3945;48.952;9.506;2023-05-19T10:19:51;98338.09;;;16.24;57.66
7802;BME280;3945;48.952;9.506;2023-05-19T10:22:20;98343.19;;;16.30;57.51
7802;BME280;3945;48.952;9.506;2023-05-19T10:24:46;98344.53;;;16.33;57.67
7802;BME280;3945;48.952;9.506;2023-05-19T10:27:12;98343.47;;;16.34;56.92
7802;BME280;3945;48.952;9.506;2023-05-19T10:29:41;98329.75;;;16.35;57.60
7802;BME280;3945;48.952;9.506;2023-05-19T10:32:12;98328.41;;;16.38;57.62
7802;BME280;3945;48.952;9.506;2023-05-19T10:37:40;98329.75;;;16.35;56.83
7802;BME280;3945;48.952;9.506;2023-05-19T10:40:10;98332.72;;;16.24;56.34
7802;BME280;3945;48.952;9.506;2023-05-19T10:42:39;98337.53;;;16.17;56.66
7802;BME280;3945;48.952;9.506;2023-05-19T10:45:08;98336.47;;;16.13;57.92
7802;BME280;3945;48.952;9.506;2023-05-19T10:47:39;98335.63;;;16.02;57.70
7802;BME280;3945;48.952;9.506;2023-05-19T10:50:06;98343.13;;;15.95;57.37
7802;BME280;3945;48.952;9.506;2023-05-19T10:52:35;98338.56;;;15.90;57.92
7802;BME280;3945;48.952;9.506;2023-05-19T10:55:06;98331.56;;;15.84;58.80
7802;BME280;3945;48.952;9.506;2023-05-19T10:57:33;98328.59;;;15.86;58.11
7802;BME280;3945;48.952;9.506;2023-05-19T11:00:01;98324.88;;;15.92;58.10
7802;BME280;3945;48.952;9.506;2023-05-19T11:02:35;98326.22;;;15.94;57.24
7802;BME280;3945;48.952;9.506;2023-05-19T11:05:05;98335.38;;;16.04;58.70
7802;BME280;3945;48.952;9.506;2023-05-19T11:07:33;98321.69;;;16.10;58.69
7802;BME280;3945;48.952;9.506;2023-05-19T11:10:02;98321.97;;;16.19;57.05
7802;BME280;3945;48.952;9.506;2023-05-19T11:12:38;98317.13;;;16.26;58.26
7802;BME280;3945;48.952;9.506;2023-05-19T11:15:05;98320.63;;;16.47;57.52
7802;BME280;3945;48.952;9.506;2023-05-19T11:17:33;98318.25;;;16.60;56.43
7802;BME280;3945;48.952;9.506;2023-05-19T11:19:59;98313.41;;;16.62;56.85
7802;BME280;3945;48.952;9.506;2023-05-19T11:22:26;98320.38;;;16.68;56.37
7802;BME280;3945;48.952;9.506;2023-05-19T11:24:53;98313.66;;;16.66;55.47
7802;BME280;3945;48.952;9.506;2023-05-19T11:27:23;98319.06;;;16.61;56.58
7802;BME280;3945;48.952;9.506;2023-05-19T11:29:51;98313.91;;;16.59;58.01
7802;BME280;3945;48.952;9.506;2023-05-19T11:32:19;98315.53;;;16.55;56.73
7802;BME280;3945;48.952;9.506;2023-05-19T11:34:46;98314.44;;;16.51;57.20
7802;BME280;3945;48.952;9.506;2023-05-19T11:37:13;98309.09;;;16.56;58.62
7802;BME280;3945;48.952;9.506;2023-05-19T11:39:39;98308.00;;;16.57;56.91
7802;BME280;3945;48.952;9.506;2023-05-19T11:42:07;98311.75;;;16.51;57.29
7802;BME280;3945;48.952;9.506;2023-05-19T11:44:33;98313.66;;;16.56;58.32
7802;BME280;3945;48.952;9.506;2023-05-19T11:47:01;98314.72;;;16.60;57.90
7802;BME280;3945;48.952;9.506;2023-05-19T11:49:28;98315.28;;;16.57;56.57
7802;BME280;3945;48.952;9.506;2023-05-19T11:51:55;98308.03;;;16.62;58.36
7802;BME280;3945;48.952;9.506;2023-05-19T11:54:27;98307.22;;;16.57;57.09
7802;BME280;3945;48.952;9.506;2023-05-19T11:56:54;98312.56;;;16.52;57.57
7802;BME280;3945;48.952;9.506;2023-05-19T11:59:27;98309.34;;;16.45;57.23
7802;BME280;3945;48.952;9.506;2023-05-19T12:01:54;98309.88;;;16.36;57.39
7802;BME280;3945;48.952;9.506;2023-05-19T12:04:22;98306.94;;;16.28;57.52
7802;BME280;3945;48.952;9.506;2023-05-19T12:06:48;98299.69;;;16.18;57.59
7802;BME280;3945;48.952;9.506;2023-05-19T12:09:14;98307.19;;;16.16;58.26
7802;BME280;3945;48.952;9.506;2023-05-19T12:11:41;98306.13;;;16.17;58.59
7802;BME280;3945;48.952;9.506;2023-05-19T12:14:08;98309.63;;;16.18;58.47
7802;BME280;3945;48.952;9.506;2023-05-19T12:16:35;98311.22;;;16.24;59.59
7802;BME280;3945;48.952;9.506;2023-05-19T12:19:04;98311.75;;;16.36;59.65
7802;BME280;3945;48.952;9.506;2023-05-19T12:21:32;98301.56;;;16.38;57.68
7802;BME280;3945;48.952;9.506;2023-05-19T12:23:58;98299.13;;;16.36;56.67
7802;BME280;3945;48.952;9.506;2023-05-19T12:26:25;98296.44;;;16.36;58.07
7802;BME280;3945;48.952;9.506;2023-05-19T12:28:51;98293.50;;;16.38;57.42
7802;BME280;3945;48.952;9.506;2023-05-19T12:31:18;98299.69;;;16.33;57.47
7802;BME280;3945;48.952;9.506;2023-05-19T12:33:45;98293.78;;;16.31;57.76
7802;BME280;3945;48.952;9.506;2023-05-19T12:36:15;98296.72;;;16.30;57.05
7802;BME280;3945;48.952;9.506;2023-05-19T12:38:43;98301.31;;;16.34;57.54
7802;BME280;3945;48.952;9.506;2023-05-19T12:41:11;98299.44;;;16.35;57.45
7802;BME280;3945;48.952;9.506;2023-05-19T12:43:39;98296.19;;;16.38;58.15
7802;BME280;3945;48.952;9.506;2023-05-19T12:46:08;98298.34;;;16.41;58.02
7802;BME280;3945;48.952;9.506;2023-05-19T12:48:38;98297.81;;;16.49;58.00
7802;BME280;3945;48.952;9.506;2023-05-19T12:51:05;98296.72;;;16.55;58.29
7802;BME280;3945;48.952;9.506;2023-05-19T12:53:31;98301.84;;;16.57;57.99
7802;BME280;3945;48.952;9.506;2023-05-19T12:55:59;98296.97;;;16.59;59.00
7802;BME280;3945;48.952;9.506;2023-05-19T12:58:25;98298.59;;;16.60;59.35
7802;BME280;3945;48.952;9.506;2023-05-19T13:00:52;98303.97;;;16.60;59.05
7802;BME280;3945;48.952;9.506;2023-05-19T13:03:21;98304.00;;;16.65;58.33
7802;BME280;3945;48.952;9.506;2023-05-19T13:05:48;98299.44;;;16.70;58.95
7802;BME280;3945;48.952;9.506;2023-05-19T13:08:15;98295.63;;;16.82;59.07
7802;BME280;3945;48.952;9.506;2023-05-19T13:10:43;98290.25;;;16.87;58.01
7802;BME280;3945;48.952;9.506;2023-05-19T13:13:11;98290.25;;;16.87;57.67
7802;BME280;3945;48.952;9.506;2023-05-19T13:15:39;98298.59;;;16.80;56.24
7802;BME280;3945;48.952;9.506;2023-05-19T13:18:06;98301.28;;;16.75;57.72
7802;BME280;3945;48.952;9.506;2023-05-19T13:20:33;98308.00;;;16.72;57.40
7802;BME280;3945;48.952;9.506;2023-05-19T13:23:00;98299.41;;;16.65;57.65
7802;BME280;3945;48.952;9.506;2023-05-19T13:25:26;98297.81;;;16.69;58.25
7802;BME280;3945;48.952;9.506;2023-05-19T13:27:53;98297.00;;;16.69;57.47
7802;BME280;3945;48.952;9.506;2023-05-19T13:30:22;98291.63;;;16.74;58.44